This is the latest recevied weather packets stored in our database for station/object EB2BAG-11. If no packets are shown the sender has not sent any weather packets the latest 10 day(s).
| Time | Temp. | Humidity | Pressure | Rain* | Wind** | Luminosity | Snow |
|---|---|---|---|---|---|---|---|
| 1777571735 | 21.11° C | 66% | 1019.1 hPa | - | - | - | - |
| 1777570534 | 20.56° C | 66% | 1019.1 hPa | - | - | - | - |
| 1777569334 | 21.11° C | 59% | 1019 hPa | - | - | - | - |
| 1777568134 | 21.67° C | 57% | 1018.9 hPa | - | - | - | - |
| 1777566934 | 21.67° C | 58% | 1018.6 hPa | - | - | - | - |
| 1777565734 | 22.22° C | 57% | 1018.4 hPa | - | - | - | - |
| 1777564534 | 22.22° C | 57% | 1018.4 hPa | - | - | - | - |
| 1777563334 | 23.33° C | 50% | 1018.1 hPa | - | - | - | - |
| 1777562134 | 22.78° C | 50% | 1018.3 hPa | - | - | - | - |
| 1777560934 | 22.78° C | 52% | 1018.1 hPa | - | - | - | - |
| 1777559733 | 23.33° C | 53% | 1018.3 hPa | - | - | - | - |
| 1777558533 | 23.33° C | 53% | 1018.1 hPa | - | - | - | - |
| 1777557333 | 23.33° C | 55% | 1018 hPa | - | - | - | - |
| 1777556133 | 22.78° C | 57% | 1017.9 hPa | - | - | - | - |
| 1777554933 | 24.44° C | 53% | 1017.7 hPa | - | - | - | - |
| 1777553733 | 23.89° C | 55% | 1017.5 hPa | - | - | - | - |
| 1777552533 | 23.33° C | 55% | 1017.4 hPa | - | - | - | - |
| 1777551333 | 23.89° C | 52% | 1017.3 hPa | - | - | - | - |
| 1777550133 | 24.44° C | 54% | 1017.2 hPa | - | - | - | - |
| 1777548933 | 24.44° C | 53% | 1017.3 hPa | - | - | - | - |
| 1777547733 | 24.44° C | 53% | 1017.4 hPa | - | - | - | - |
| 1777546532 | 24.44° C | 51% | 1017.3 hPa | - | - | - | - |
| 1777545332 | 23.89° C | 55% | 1017.3 hPa | - | - | - | - |
| 1777544132 | 22.78° C | 52% | 1017.4 hPa | - | - | - | - |
| 1777542932 | 22.78° C | 55% | 1017.4 hPa | - | - | - | - |
* Rain since midnight (hover to see other rain measurements)
** Current wind speed in m/s (hover to see current wind gust speed)